Time;durP1;ratioP1;P1;durP2;ratioP2;P2;SDS_P1;SDS_P2;PMS_P1;PMS_P2;Temp;Humidity;BMP_temperature;BMP_pressure;BME280_temperature;BME280_humidity;BME280_pressure;Samples;Min_cycle;Max_cycle;Signal;HPM_P1;HPM_P2
2022/01/09 00:01:50;;;;;;;2.00;1.90;;;6.70;92.10;;;;;;5033573;28;20026;-29
2022/01/09 00:04:15;;;;;;;2.08;1.90;;;6.70;92.10;;;;;;5033812;28;20020;-29
2022/01/09 00:06:41;;;;;;;2.15;1.95;;;6.70;92.10;;;;;;5033479;28;20024;-29
2022/01/09 00:09:06;;;;;;;2.20;2.00;;;6.70;92.00;;;;;;5033433;28;20026;-29
2022/01/09 00:11:32;;;;;;;1.80;1.60;;;6.70;92.00;;;;;;5033500;28;20022;-30
2022/01/09 00:13:57;;;;;;;1.90;1.80;;;6.70;92.00;;;;;;5033376;28;20030;-31
2022/01/09 00:16:23;;;;;;;1.92;1.83;;;6.70;92.00;;;;;;5033346;28;20508;-29
2022/01/09 00:18:50;;;;;;;2.50;1.80;;;6.70;92.00;;;;;;5032086;28;20098;-29
2022/01/09 00:21:17;;;;;;;2.35;2.15;;;6.70;92.00;;;;;;5033794;28;20388;-33
2022/01/09 00:23:45;;;;;;;2.00;1.90;;;6.80;92.00;;;;;;5033381;28;20022;-31
2022/01/09 00:26:11;;;;;;;2.10;1.90;;;6.80;91.90;;;;;;5033480;28;20152;-30
2022/01/09 00:28:36;;;;;;;2.38;2.05;;;6.80;91.90;;;;;;5033454;28;20112;-33
2022/01/09 00:31:02;;;;;;;1.98;1.77;;;6.80;91.90;;;;;;5033207;28;20477;-30
2022/01/09 00:33:28;;;;;;;1.75;1.65;;;6.90;91.90;;;;;;5032787;28;20045;-30
2022/01/09 00:35:53;;;;;;;2.15;1.95;;;6.90;91.90;;;;;;5033124;28;20030;-31
2022/01/09 00:38:19;;;;;;;2.63;1.90;;;6.90;91.80;;;;;;5033074;28;20080;-30
2022/01/09 00:40:45;;;;;;;2.10;1.90;;;6.90;91.80;;;;;;5033147;28;20032;-29
2022/01/09 00:43:12;;;;;;;2.08;1.90;;;6.90;91.80;;;;;;5033004;28;20032;-29
2022/01/09 00:45:41;;;;;;;2.38;1.80;;;6.90;91.80;;;;;;5033320;28;20032;-29
2022/01/09 00:48:08;;;;;;;1.85;1.75;;;6.90;91.80;;;;;;5032947;28;20061;-31
2022/01/09 00:50:36;;;;;;;2.05;1.92;;;7.00;91.80;;;;;;5033307;28;20436;-31
2022/01/09 00:53:03;;;;;;;2.13;1.92;;;7.00;91.80;;;;;;5033256;28;20461;-29
2022/01/09 00:55:29;;;;;;;1.90;1.80;;;7.00;91.80;;;;;;5031795;28;20022;-30
2022/01/09 00:57:54;;;;;;;3.00;2.00;;;7.00;91.70;;;;;;5033138;28;20045;-29
2022/01/09 01:00:20;;;;;;;1.90;1.80;;;7.00;91.70;;;;;;5032901;28;20030;-33
2022/01/09 01:02:46;;;;;;;2.88;1.75;;;7.00;91.70;;;;;;5033026;28;20025;-29
2022/01/09 01:05:12;;;;;;;2.20;2.00;;;7.10;91.70;;;;;;5032910;28;20037;-31
2022/01/09 01:07:38;;;;;;;2.00;1.80;;;7.10;91.70;;;;;;5032740;28;20021;-30
2022/01/09 01:10:04;;;;;;;2.15;1.90;;;7.10;91.60;;;;;;5032832;28;20044;-30
2022/01/09 01:12:31;;;;;;;1.70;1.60;;;7.00;91.60;;;;;;5032792;28;20036;-30
2022/01/09 01:14:56;;;;;;;2.03;1.92;;;7.00;91.60;;;;;;5032920;28;20022;-35
2022/01/09 01:17:23;;;;;;;2.03;1.83;;;7.00;91.60;;;;;;5032709;28;20025;-28
2022/01/09 01:19:49;;;;;;;2.58;2.20;;;7.00;91.50;;;;;;5032791;28;20041;-32
2022/01/09 01:22:16;;;;;;;2.38;2.17;;;7.00;91.50;;;;;;5032702;28;20051;-30
2022/01/09 01:24:42;;;;;;;2.08;1.88;;;7.00;91.50;;;;;;5032695;28;20025;-29
2022/01/09 01:27:09;;;;;;;2.08;1.92;;;6.90;91.40;;;;;;5032852;28;20113;-28
2022/01/09 01:29:36;;;;;;;2.10;1.95;;;7.00;91.50;;;;;;5032917;28;20064;-32
2022/01/09 01:32:02;;;;;;;2.10;2.00;;;7.00;91.50;;;;;;5032472;28;20041;-30
2022/01/09 01:34:27;;;;;;;2.42;2.22;;;7.00;91.50;;;;;;5032535;28;20061;-29
2022/01/09 01:36:53;;;;;;;2.80;2.50;;;6.90;91.50;;;;;;5032564;28;20021;-31
2022/01/09 01:39:18;;;;;;;1.90;1.80;;;6.90;91.50;;;;;;5032590;28;20025;-31
2022/01/09 01:41:44;;;;;;;2.92;1.67;;;6.90;91.40;;;;;;5032652;28;20077;-33
2022/01/09 01:44:11;;;;;;;2.22;1.48;;;6.80;91.40;;;;;;5032468;28;20068;-30
2022/01/09 01:46:38;;;;;;;4.05;1.85;;;6.80;91.40;;;;;;5036284;28;20496;-29
2022/01/09 01:49:04;;;;;;;3.65;2.10;;;6.80;91.40;;;;;;5035911;28;20022;-29
2022/01/09 01:51:30;;;;;;;4.28;1.52;;;6.70;91.40;;;;;;5035982;28;20056;-29
2022/01/09 01:53:57;;;;;;;6.55;1.85;;;6.70;91.60;;;;;;5035893;28;20095;-30
2022/01/09 01:56:24;;;;;;;4.22;1.40;;;6.60;91.30;;;;;;5036183;28;20018;-29
2022/01/09 01:58:51;;;;;;;7.82;1.63;;;6.50;91.40;;;;;;5035811;28;20036;-29
2022/01/09 02:01:17;;;;;;;8.68;1.70;;;6.50;91.50;;;;;;5035839;28;20032;-28
2022/01/09 02:03:43;;;;;;;15.48;2.60;;;6.50;91.50;;;;;;5036080;28;20022;-28
2022/01/09 02:06:10;;;;;;;10.05;2.28;;;6.40;91.60;;;;;;5035687;28;20162;-31
2022/01/09 02:08:36;;;;;;;12.50;2.67;;;6.40;91.60;;;;;;5035684;28;20037;-28
2022/01/09 02:11:02;;;;;;;13.27;2.33;;;6.40;91.60;;;;;;5035674;28;20072;-29
2022/01/09 02:13:27;;;;;;;11.57;2.20;;;6.40;91.70;;;;;;5035524;28;20021;-29
2022/01/09 02:15:57;;;;;;;10.88;2.30;;;6.40;91.70;;;;;;5035485;28;20026;-30
2022/01/09 02:18:23;;;;;;;11.52;2.25;;;6.50;91.70;;;;;;5035441;28;20064;-29
2022/01/09 02:20:50;;;;;;;13.25;2.78;;;6.50;91.80;;;;;;5035403;28;20026;-28
2022/01/09 02:23:17;;;;;;;14.05;2.90;;;6.50;91.90;;;;;;5035414;28;20028;-28
2022/01/09 02:25:45;;;;;;;19.15;3.50;;;6.50;92.00;;;;;;5035412;28;20026;-28
2022/01/09 02:28:12;;;;;;;28.73;4.65;;;6.50;92.00;;;;;;5035126;28;20541;-32
2022/01/09 02:30:38;;;;;;;12.65;2.80;;;6.50;92.00;;;;;;5035369;28;20036;-29
2022/01/09 02:33:07;;;;;;;24.92;4.05;;;6.50;92.00;;;;;;5034944;28;20026;-29
2022/01/09 02:35:33;;;;;;;20.98;3.72;;;6.60;92.10;;;;;;5035146;28;20135;-29
2022/01/09 02:37:59;;;;;;;20.65;4.60;;;6.60;92.20;;;;;;5035017;28;20473;-29
2022/01/09 02:40:25;;;;;;;19.48;3.88;;;6.70;92.20;;;;;;5035020;28;20038;-30
2022/01/09 02:42:52;;;;;;;21.60;3.78;;;6.70;92.20;;;;;;5034993;28;20025;-30
2022/01/09 02:45:21;;;;;;;26.55;5.05;;;6.70;92.10;;;;;;5035088;28;20108;-33
2022/01/09 02:47:52;;;;;;;14.38;3.33;;;6.80;92.20;;;;;;5034821;28;20022;-29
2022/01/09 02:50:31;;;;;;;20.17;4.10;;;6.80;92.10;;;;;;5035052;28;20428;-28
2022/01/09 02:53:00;;;;;;;25.08;5.15;;;6.80;92.10;;;;;;5035009;28;20022;-30
2022/01/09 02:55:28;;;;;;;22.70;3.90;;;6.80;92.10;;;;;;5035035;28;20403;-29
2022/01/09 02:57:57;;;;;;;24.63;3.78;;;6.80;92.10;;;;;;5034902;28;20076;-30
2022/01/09 03:00:39;;;;;;;28.80;3.72;;;6.90;92.10;;;;;;5034658;28;20091;-28
2022/01/09 03:03:05;;;;;;;23.92;3.90;;;6.90;92.10;;;;;;5034664;28;20477;-30
2022/01/09 03:05:31;;;;;;;18.55;3.78;;;6.90;92.10;;;;;;5034554;28;20033;-32
2022/01/09 03:07:57;;;;;;;20.48;3.88;;;6.80;92.10;;;;;;5034437;28;20033;-32
2022/01/09 03:10:23;;;;;;;20.77;4.20;;;6.90;92.10;;;;;;5034476;28;20025;-30
2022/01/09 03:12:50;;;;;;;17.65;3.70;;;6.90;92.10;;;;;;5034322;28;20076;-31
2022/01/09 03:15:17;;;;;;;18.73;3.22;;;6.90;92.10;;;;;;5034778;28;20388;-29
2022/01/09 03:17:43;;;;;;;20.40;3.25;;;6.90;92.10;;;;;;5034387;28;20492;-30
2022/01/09 03:20:15;;;;;;;22.23;4.05;;;6.90;92.10;;;;;;5034324;28;20025;-29
2022/01/09 03:22:41;;;;;;;18.27;3.88;;;6.90;92.40;;;;;;5034536;28;20033;-29
2022/01/09 03:25:08;;;;;;;9.15;2.78;;;6.90;92.10;;;;;;5034206;28;20025;-28
2022/01/09 03:27:36;;;;;;;15.50;3.50;;;6.90;92.10;;;;;;5034083;28;20550;-29
2022/01/09 03:30:03;;;;;;;22.35;4.55;;;6.90;92.10;;;;;;5034181;28;20021;-30
2022/01/09 03:32:29;;;;;;;29.00;4.65;;;6.90;92.00;;;;;;5033946;28;20029;-28
2022/01/09 03:34:54;;;;;;;17.88;2.92;;;6.90;92.00;;;;;;5033820;28;20556;-30
2022/01/09 03:37:20;;;;;;;16.10;3.40;;;6.90;92.00;;;;;;5033939;28;20473;-34
2022/01/09 03:39:45;;;;;;;22.77;3.53;;;6.80;92.00;;;;;;5033943;28;20029;-33
2022/01/09 03:42:11;;;;;;;18.75;3.80;;;6.80;92.00;;;;;;5034139;28;20376;-32
2022/01/09 03:44:37;;;;;;;14.73;2.78;;;6.80;92.00;;;;;;5034006;28;20025;-32
2022/01/09 03:47:02;;;;;;;13.73;2.88;;;6.80;92.00;;;;;;5033741;28;20470;-29
2022/01/09 03:49:28;;;;;;;17.90;3.55;;;6.80;92.00;;;;;;5033777;28;20101;-29
2022/01/09 03:51:55;;;;;;;13.05;3.10;;;6.80;92.00;;;;;;5033750;28;20071;-28
2022/01/09 03:54:22;;;;;;;17.13;3.90;;;6.80;92.00;;;;;;5032515;28;20079;-30
2022/01/09 03:56:51;;;;;;;16.17;3.42;;;6.80;92.00;;;;;;5033632;28;20009;-29
2022/01/09 03:59:17;;;;;;;24.45;4.00;;;6.80;91.90;;;;;;5033601;28;20031;-30
2022/01/09 04:01:43;;;;;;;20.45;3.75;;;6.80;91.90;;;;;;5033549;28;20108;-29
2022/01/09 04:04:09;;;;;;;19.85;3.53;;;6.80;91.90;;;;;;5033529;28;20067;-30
2022/01/09 04:06:34;;;;;;;16.52;3.17;;;6.80;91.90;;;;;;5033499;28;20029;-29
2022/01/09 04:09:07;;;;;;;17.48;3.35;;;6.80;92.10;;;;;;5032997;28;20038;-30
2022/01/09 04:11:37;;;;;;;19.35;3.92;;;6.70;91.90;;;;;;5033368;28;20147;-32
2022/01/09 04:14:03;;;;;;;21.30;3.65;;;6.70;91.80;;;;;;5033298;28;20389;-31
2022/01/09 04:16:29;;;;;;;17.02;3.28;;;6.70;91.80;;;;;;5033370;28;20029;-31
2022/01/09 04:18:54;;;;;;;15.88;3.22;;;6.70;91.70;;;;;;5033370;28;20554;-29
2022/01/09 04:21:20;;;;;;;19.77;3.40;;;6.70;92.00;;;;;;5033193;28;20374;-30
2022/01/09 04:23:46;;;;;;;14.40;3.20;;;6.70;91.70;;;;;;5033377;28;20029;-30
2022/01/09 04:26:12;;;;;;;16.63;3.00;;;6.70;91.70;;;;;;5033208;28;20033;-29
2022/01/09 04:28:38;;;;;;;14.52;2.45;;;6.70;91.70;;;;;;5033398;28;20091;-30
2022/01/09 04:31:03;;;;;;;16.77;2.83;;;6.70;91.70;;;;;;5031952;28;20026;-30
2022/01/09 04:33:29;;;;;;;21.02;3.60;;;6.70;91.70;;;;;;5032859;28;20092;-29
2022/01/09 04:35:54;;;;;;;18.92;3.13;;;6.70;91.70;;;;;;5033044;28;20026;-29
2022/01/09 04:38:20;;;;;;;17.15;3.13;;;6.70;91.60;;;;;;5033279;28;20057;-29
2022/01/09 04:40:46;;;;;;;22.48;3.90;;;6.70;91.60;;;;;;5033289;28;20116;-30
2022/01/09 04:43:13;;;;;;;16.95;3.15;;;6.70;91.50;;;;;;5033297;28;20075;-30
2022/01/09 04:45:39;;;;;;;16.63;3.50;;;6.70;91.40;;;;;;5033268;28;20056;-35
2022/01/09 04:48:08;;;;;;;15.95;2.72;;;6.70;91.40;;;;;;5032869;28;20057;-30
2022/01/09 04:50:36;;;;;;;15.98;3.28;;;6.60;91.40;;;;;;5033243;28;20029;-30
2022/01/09 04:53:08;;;;;;;17.00;2.97;;;6.60;91.30;;;;;;5031639;28;20053;-32
2022/01/09 04:55:36;;;;;;;19.77;3.30;;;6.60;91.30;;;;;;5032988;28;20025;-30
2022/01/09 04:58:03;;;;;;;14.10;3.40;;;6.60;91.30;;;;;;5047993;28;20477;-30
2022/01/09 05:00:29;;;;;;;15.52;2.83;;;6.50;91.20;;;;;;5033017;28;20025;-31
2022/01/09 05:02:55;;;;;;;15.55;2.83;;;6.50;91.20;;;;;;5032868;28;20044;-30
2022/01/09 05:05:21;;;;;;;13.98;2.67;;;6.50;91.10;;;;;;5031582;28;20025;-32
2022/01/09 05:07:46;;;;;;;17.23;2.90;;;6.50;91.10;;;;;;5032719;28;20033;-31
2022/01/09 05:10:13;;;;;;;14.98;2.95;;;6.50;91.00;;;;;;5032816;28;20026;-29
2022/01/09 05:12:39;;;;;;;16.02;2.40;;;6.50;91.10;;;;;;5032907;28;20076;-29
2022/01/09 05:15:06;;;;;;;20.10;3.13;;;6.50;91.10;;;;;;5031424;28;20029;-29
2022/01/09 05:17:31;;;;;;;13.32;2.75;;;6.50;91.00;;;;;;5032712;28;20108;-31
2022/01/09 05:19:57;;;;;;;13.05;2.70;;;6.50;91.00;;;;;;5034019;28;20048;-31
2022/01/09 05:22:28;;;;;;;12.88;2.42;;;6.50;90.90;;;;;;5036636;28;20060;-29
2022/01/09 05:24:55;;;;;;;20.23;3.28;;;6.50;90.90;;;;;;5036363;28;20028;-29
2022/01/09 05:27:21;;;;;;;20.83;3.42;;;6.50;90.90;;;;;;5036276;28;20036;-29
2022/01/09 05:29:47;;;;;;;18.15;3.10;;;6.50;90.80;;;;;;5036418;28;20477;-29
2022/01/09 05:32:13;;;;;;;13.52;2.90;;;6.40;90.70;;;;;;5036183;28;20026;-31
2022/01/09 05:34:38;;;;;;;16.50;2.95;;;6.40;90.60;;;;;;5036078;28;20046;-32
2022/01/09 05:37:05;;;;;;;12.85;2.58;;;6.40;90.70;;;;;;5036189;28;20053;-29
2022/01/09 05:39:33;;;;;;;12.77;2.42;;;6.40;90.70;;;;;;5036396;28;20473;-30
2022/01/09 05:42:01;;;;;;;16.63;3.25;;;6.40;90.60;;;;;;5036091;28;20029;-31
2022/01/09 05:44:26;;;;;;;10.80;2.55;;;6.40;90.60;;;;;;5036202;28;20052;-29
2022/01/09 05:46:52;;;;;;;18.25;3.30;;;6.40;90.50;;;;;;5036289;28;20013;-29
2022/01/09 05:49:18;;;;;;;12.25;2.83;;;6.30;90.30;;;;;;5035866;28;20034;-30
2022/01/09 05:51:43;;;;;;;16.73;2.70;;;6.40;90.30;;;;;;5035977;28;20112;-30
2022/01/09 05:54:09;;;;;;;11.68;2.60;;;6.30;90.30;;;;;;5035841;28;20029;-30
2022/01/09 05:56:35;;;;;;;15.38;2.72;;;6.30;90.40;;;;;;5035860;28;20028;-29
2022/01/09 05:59:01;;;;;;;10.13;2.55;;;6.30;90.40;;;;;;5035785;28;20029;-30
2022/01/09 06:01:26;;;;;;;15.55;2.63;;;6.30;90.40;;;;;;5035733;28;20388;-29
2022/01/09 06:03:52;;;;;;;12.05;2.50;;;6.30;90.30;;;;;;5035869;28;20018;-29
2022/01/09 06:06:18;;;;;;;18.70;3.03;;;6.30;90.40;;;;;;5035746;28;20025;-30
2022/01/09 06:08:43;;;;;;;13.40;2.55;;;6.30;90.30;;;;;;5035563;28;20424;-30
2022/01/09 06:11:09;;;;;;;15.45;2.55;;;6.30;90.40;;;;;;5035584;28;20066;-30
2022/01/09 06:13:35;;;;;;;8.68;2.28;;;6.30;90.40;;;;;;5035558;28;20021;-30
2022/01/09 06:16:00;;;;;;;8.15;2.13;;;6.30;90.40;;;;;;5035687;28;20093;-30
2022/01/09 06:18:26;;;;;;;10.70;2.30;;;6.30;90.40;;;;;;5035739;28;20397;-31
2022/01/09 06:20:51;;;;;;;11.95;2.15;;;6.30;90.40;;;;;;5035210;28;20052;-29
2022/01/09 06:23:20;;;;;;;8.73;2.20;;;6.30;90.50;;;;;;5035326;28;20052;-29
2022/01/09 06:25:50;;;;;;;7.78;1.85;;;6.40;90.30;;;;;;5035365;28;20100;-34
2022/01/09 06:28:16;;;;;;;11.75;2.72;;;6.40;90.40;;;;;;5035473;28;20053;-36
2022/01/09 06:30:43;;;;;;;12.75;2.35;;;6.40;90.40;;;;;;5034874;28;20057;-29
2022/01/09 06:33:09;;;;;;;14.88;2.47;;;6.40;90.40;;;;;;5035031;28;20046;-31
2022/01/09 06:35:35;;;;;;;13.45;2.33;;;6.40;90.40;;;;;;5035131;28;20029;-30
2022/01/09 06:38:01;;;;;;;12.18;2.92;;;6.30;90.30;;;;;;5034993;28;20063;-33
2022/01/09 06:40:27;;;;;;;13.63;2.72;;;6.30;90.30;;;;;;5035024;28;20064;-29
2022/01/09 06:42:52;;;;;;;13.75;2.40;;;6.30;90.20;;;;;;5035336;28;20367;-31
2022/01/09 06:45:18;;;;;;;8.57;2.00;;;6.30;90.00;;;;;;5034883;28;20061;-31
2022/01/09 06:47:44;;;;;;;12.43;2.30;;;6.30;90.10;;;;;;5034757;28;20496;-29
2022/01/09 06:50:14;;;;;;;15.55;2.35;;;6.30;90.10;;;;;;5034810;28;20121;-31
2022/01/09 06:52:40;;;;;;;10.02;2.40;;;6.30;90.00;;;;;;5034760;28;20026;-30
2022/01/09 06:55:07;;;;;;;13.18;2.00;;;6.30;89.90;;;;;;5035017;28;20029;-32
2022/01/09 06:57:32;;;;;;;8.07;2.00;;;6.20;90.00;;;;;;5035037;28;20034;-32
2022/01/09 06:59:58;;;;;;;8.82;2.15;;;6.20;89.80;;;;;;5034657;28;20021;-32
2022/01/09 07:02:23;;;;;;;12.85;2.20;;;6.10;89.80;;;;;;5034561;28;20029;-30
2022/01/09 07:04:49;;;;;;;9.88;1.92;;;6.10;90.00;;;;;;5034809;28;20091;-29
2022/01/09 07:07:14;;;;;;;9.20;2.47;;;6.00;90.00;;;;;;5033119;28;20116;-29
2022/01/09 07:09:40;;;;;;;12.50;2.40;;;6.00;90.00;;;;;;5033205;28;20032;-33
2022/01/09 07:12:07;;;;;;;7.63;2.03;;;6.00;90.00;;;;;;5034416;28;20030;-32
2022/01/09 07:14:33;;;;;;;8.68;2.10;;;6.00;90.00;;;;;;5034680;28;20032;-31
2022/01/09 07:16:58;;;;;;;8.48;2.05;;;6.00;90.00;;;;;;5034342;28;20025;-30
2022/01/09 07:19:24;;;;;;;13.60;2.42;;;6.00;90.00;;;;;;5034544;28;20057;-30
2022/01/09 07:21:50;;;;;;;10.23;1.83;;;6.00;90.10;;;;;;5034209;28;20037;-35
2022/01/09 07:24:15;;;;;;;8.63;2.45;;;6.00;90.10;;;;;;5034160;28;20461;-29
2022/01/09 07:26:41;;;;;;;7.22;2.28;;;6.00;90.20;;;;;;5034374;28;20017;-30
2022/01/09 07:29:06;;;;;;;5.43;1.50;;;5.90;90.20;;;;;;5033979;28;20473;-34
2022/01/09 07:31:32;;;;;;;9.05;1.88;;;6.00;90.30;;;;;;5033930;28;20060;-30
2022/01/09 07:33:57;;;;;;;9.30;1.95;;;6.00;90.20;;;;;;5033846;28;20041;-31
2022/01/09 07:36:23;;;;;;;11.18;2.22;;;6.00;90.10;;;;;;5034085;28;20067;-28
2022/01/09 07:38:48;;;;;;;11.85;2.00;;;6.10;90.10;;;;;;5033952;28;20037;-29
2022/01/09 07:41:15;;;;;;;10.38;2.10;;;6.10;90.10;;;;;;5033931;28;20052;-30
2022/01/09 07:43:41;;;;;;;14.05;2.60;;;6.10;90.00;;;;;;5033456;28;20362;-29
2022/01/09 07:46:07;;;;;;;8.95;2.20;;;6.10;90.00;;;;;;5049151;28;20035;-29
2022/01/09 07:48:33;;;;;;;6.38;1.60;;;6.10;90.00;;;;;;5033596;28;20022;-30
2022/01/09 07:50:58;;;;;;;6.15;1.63;;;6.10;90.00;;;;;;5033763;28;20101;-29
2022/01/09 07:53:24;;;;;;;8.27;1.73;;;6.10;90.00;;;;;;5033692;28;20028;-31
2022/01/09 07:55:52;;;;;;;9.13;2.08;;;6.10;90.00;;;;;;5033767;28;20473;-32
2022/01/09 07:58:19;;;;;;;12.35;2.55;;;6.10;90.00;;;;;;5033535;28;20041;-31
2022/01/09 08:00:45;;;;;;;6.63;1.80;;;6.00;89.80;;;;;;5033703;28;20519;-30
2022/01/09 08:03:11;;;;;;;10.82;1.88;;;6.00;89.90;;;;;;5033369;28;20025;-31
2022/01/09 08:05:37;;;;;;;11.50;2.10;;;6.00;90.00;;;;;;5033541;28;20033;-30
2022/01/09 08:08:03;;;;;;;11.10;2.13;;;6.00;90.00;;;;;;5033381;28;20497;-29
2022/01/09 08:10:28;;;;;;;4.85;1.55;;;6.00;89.90;;;;;;5033401;28;20030;-30
2022/01/09 08:12:54;;;;;;;6.18;1.40;;;6.00;89.90;;;;;;5033402;28;20033;-30
2022/01/09 08:15:19;;;;;;;7.82;2.00;;;5.90;89.70;;;;;;5033240;28;20124;-31
2022/01/09 08:17:45;;;;;;;6.85;1.60;;;5.90;89.70;;;;;;5033296;28;20032;-31
2022/01/09 08:20:14;;;;;;;7.65;1.85;;;6.00;89.70;;;;;;5033443;28;20033;-34
2022/01/09 08:22:41;;;;;;;6.38;1.60;;;5.90;89.40;;;;;;5033290;28;20032;-29
2022/01/09 08:25:09;;;;;;;7.57;1.92;;;5.90;89.30;;;;;;5033177;28;20029;-31
2022/01/09 08:27:34;;;;;;;7.32;1.80;;;5.90;89.30;;;;;;5033031;28;20052;-30
2022/01/09 08:30:00;;;;;;;9.10;1.83;;;5.90;89.10;;;;;;5033199;28;20022;-30
2022/01/09 08:32:25;;;;;;;9.90;1.70;;;5.80;89.20;;;;;;5032988;28;20022;-34
2022/01/09 08:34:51;;;;;;;9.45;2.10;;;5.90;89.10;;;;;;5032951;28;20090;-28
2022/01/09 08:37:16;;;;;;;7.50;1.70;;;5.80;89.00;;;;;;5032990;28;20028;-30
2022/01/09 08:39:44;;;;;;;8.02;1.48;;;5.90;89.10;;;;;;5033284;28;20017;-31
2022/01/09 08:42:10;;;;;;;8.65;2.03;;;5.90;89.00;;;;;;5032896;28;20083;-31
2022/01/09 08:44:36;;;;;;;5.30;1.63;;;5.90;88.80;;;;;;5033278;28;20513;-30
2022/01/09 08:47:03;;;;;;;9.63;2.05;;;5.80;88.80;;;;;;5033037;28;20031;-30
2022/01/09 08:49:28;;;;;;;7.93;1.70;;;5.80;89.00;;;;;;5032888;28;20088;-33
2022/01/09 08:51:55;;;;;;;6.10;1.75;;;5.80;89.10;;;;;;5033127;28;20473;-31
2022/01/09 08:54:21;;;;;;;6.05;1.60;;;5.80;89.10;;;;;;5050259;28;20029;-30
2022/01/09 08:56:46;;;;;;;5.68;1.60;;;5.80;88.80;;;;;;5037041;28;20025;-30
2022/01/09 08:59:12;;;;;;;6.57;1.80;;;5.70;89.00;;;;;;5036904;28;20029;-34
2022/01/09 09:01:38;;;;;;;8.65;2.33;;;5.70;89.20;;;;;;5037179;28;20029;-31
2022/01/09 09:04:05;;;;;;;9.52;2.15;;;5.70;89.10;;;;;;5036890;28;20060;-32
2022/01/09 09:06:31;;;;;;;11.45;2.20;;;5.70;89.00;;;;;;5037063;28;20470;-31
2022/01/09 09:08:56;;;;;;;9.55;2.22;;;5.80;89.00;;;;;;5036784;28;20030;-30
2022/01/09 09:11:22;;;;;;;6.05;1.70;;;5.70;88.60;;;;;;5036756;28;20021;-31
2022/01/09 09:13:48;;;;;;;6.80;1.90;;;5.70;88.70;;;;;;5036787;28;20029;-31
2022/01/09 09:16:15;;;;;;;5.32;1.80;;;5.80;88.80;;;;;;5036615;28;20428;-30
2022/01/09 09:18:40;;;;;;;10.18;2.10;;;5.80;88.80;;;;;;5036563;28;20033;-30
2022/01/09 09:21:06;;;;;;;4.85;1.83;;;5.80;88.70;;;;;;5036758;28;20098;-31
2022/01/09 09:23:32;;;;;;;7.68;1.67;;;5.90;88.80;;;;;;5036466;28;20024;-31
2022/01/09 09:25:57;;;;;;;7.72;2.10;;;5.90;88.70;;;;;;5036478;28;20112;-32
2022/01/09 09:28:23;;;;;;;8.57;1.90;;;6.00;88.50;;;;;;5051860;28;20469;-29
2022/01/09 09:30:48;;;;;;;7.90;1.90;;;6.10;87.90;;;;;;5036410;28;20104;-31
2022/01/09 09:33:14;;;;;;;7.90;1.80;;;6.20;87.30;;;;;;5036047;28;20045;-30
2022/01/09 09:35:39;;;;;;;9.20;2.20;;;6.20;87.30;;;;;;5036176;28;20408;-28
2022/01/09 09:38:05;;;;;;;11.93;1.98;;;6.30;87.50;;;;;;5036227;28;20029;-29
2022/01/09 09:40:31;;;;;;;7.30;1.95;;;6.30;87.10;;;;;;5036191;28;20068;-30
2022/01/09 09:42:57;;;;;;;10.05;1.75;;;6.30;86.90;;;;;;5036219;28;20037;-34
2022/01/09 09:45:25;;;;;;;11.27;2.15;;;6.40;87.20;;;;;;5036000;28;20022;-32
2022/01/09 09:47:52;;;;;;;9.27;2.25;;;6.40;87.10;;;;;;5036041;28;20061;-30
2022/01/09 09:50:19;;;;;;;6.82;2.05;;;6.40;87.10;;;;;;5036011;28;20025;-31
2022/01/09 09:52:46;;;;;;;6.35;1.90;;;6.40;86.90;;;;;;5036028;28;20465;-26
2022/01/09 09:55:12;;;;;;;7.95;2.72;;;6.40;87.10;;;;;;5035854;28;20029;-30
2022/01/09 09:57:38;;;;;;;5.63;1.88;;;6.40;87.10;;;;;;5035756;28;20037;-30
2022/01/09 10:00:11;;;;;;;10.23;2.28;;;6.40;87.30;;;;;;5035735;28;20060;-30
2022/01/09 10:02:47;;;;;;;14.35;2.10;;;6.40;87.40;;;;;;5035847;28;20032;-30
2022/01/09 10:05:16;;;;;;;8.02;2.22;;;6.30;87.50;;;;;;5034976;28;20073;-30
2022/01/09 10:07:42;;;;;;;7.65;1.85;;;6.30;87.60;;;;;;5035570;28;20032;-31
2022/01/09 10:10:11;;;;;;;12.45;2.67;;;6.30;87.80;;;;;;5035550;28;20377;-31
2022/01/09 10:12:38;;;;;;;6.63;2.10;;;6.40;87.80;;;;;;5035660;28;20029;-31
2022/01/09 10:15:16;;;;;;;9.25;2.30;;;6.40;87.70;;;;;;5034102;28;20083;-32
2022/01/09 10:17:44;;;;;;;8.00;2.00;;;6.50;87.50;;;;;;5035299;28;20025;-32
2022/01/09 10:20:15;;;;;;;8.05;2.10;;;6.50;87.30;;;;;;5035167;28;20428;-30
2022/01/09 10:22:46;;;;;;;9.43;2.42;;;6.70;87.30;;;;;;5035446;28;20029;-29
2022/01/09 10:25:32;;;;;;;8.18;1.90;;;6.70;86.40;;;;;;5035177;28;20500;-32
2022/01/09 10:28:01;;;;;;;9.70;2.40;;;6.70;86.30;;;;;;5035202;28;20032;-31
2022/01/09 10:30:51;;;;;;;6.53;1.33;;;6.70;86.10;;;;;;5035425;28;20502;-30
2022/01/09 10:33:25;;;;;;;8.50;1.98;;;6.70;86.30;;;;;;5034489;28;20048;-31
2022/01/09 10:35:50;;;;;;;;;;;6.70;86.40;;;;;;5035552;28;20022;-30
2022/01/09 10:38:19;;;;;;;9.80;2.08;;;6.70;85.90;;;;;;5034962;28;19975;-30
2022/01/09 10:40:49;;;;;;;6.82;2.20;;;6.70;86.40;;;;;;5035333;28;20080;-29
2022/01/09 10:43:21;;;;;;;6.78;2.03;;;6.70;86.70;;;;;;5035234;28;20097;-30
2022/01/09 10:45:56;;;;;;;10.02;2.15;;;6.70;87.00;;;;;;5035105;28;20029;-33
2022/01/09 10:48:23;;;;;;;10.48;2.58;;;6.70;87.10;;;;;;5034888;28;20029;-33
2022/01/09 10:50:50;;;;;;;10.45;2.60;;;6.70;87.00;;;;;;5034830;28;20021;-35
2022/01/09 10:53:17;;;;;;;8.68;2.33;;;6.70;87.10;;;;;;5034774;28;20018;-30
2022/01/09 10:55:44;;;;;;;10.52;2.03;;;6.80;87.30;;;;;;5034724;28;20029;-32
2022/01/09 10:58:22;;;;;;;6.57;2.10;;;6.80;87.50;;;;;;5034923;28;20473;-30
2022/01/09 11:00:47;;;;;;;9.15;2.38;;;6.80;88.10;;;;;;5034869;28;20476;-31
2022/01/09 11:03:14;;;;;;;8.52;2.45;;;6.90;87.60;;;;;;5033346;28;20071;-30
2022/01/09 11:05:40;;;;;;;8.43;2.40;;;6.90;87.60;;;;;;5034465;28;20076;-31
2022/01/09 11:08:07;;;;;;;8.20;2.47;;;6.90;87.60;;;;;;5034440;28;20101;-30
2022/01/09 11:10:33;;;;;;;8.63;2.13;;;7.00;87.70;;;;;;5034322;28;20477;-29
2022/01/09 11:13:01;;;;;;;6.85;2.10;;;7.00;87.80;;;;;;5034355;28;20018;-30
2022/01/09 11:15:29;;;;;;;4.20;1.85;;;7.00;87.70;;;;;;5032981;28;20057;-29
2022/01/09 11:17:58;;;;;;;5.78;1.90;;;7.10;87.70;;;;;;5033453;28;20014;-31
2022/01/09 11:20:24;;;;;;;9.38;2.08;;;7.20;87.70;;;;;;5034268;28;20041;-30
2022/01/09 11:22:53;;;;;;;9.95;2.22;;;7.20;87.50;;;;;;5034532;28;20376;-31
2022/01/09 11:25:31;;;;;;;9.77;2.15;;;7.30;87.40;;;;;;5034139;28;20036;-32
2022/01/09 11:28:23;;;;;;;7.15;1.83;;;7.40;86.90;;;;;;5034046;28;20029;-32
2022/01/09 11:30:56;;;;;;;7.93;2.00;;;7.50;87.00;;;;;;5034008;28;20477;-30
2022/01/09 11:33:28;;;;;;;10.38;2.17;;;7.60;86.90;;;;;;5033651;28;20037;-29
2022/01/09 11:36:28;;;;;;;12.38;2.72;;;7.60;86.40;;;;;;5034299;28;20362;-29
2022/01/09 11:39:13;;;;;;;8.50;2.25;;;7.60;86.10;;;;;;5033919;28;20026;-31
2022/01/09 11:41:44;;;;;;;10.52;2.17;;;7.60;85.80;;;;;;5033766;28;20032;-30
2022/01/09 11:44:15;;;;;;;9.15;2.35;;;7.60;85.20;;;;;;5033955;28;20026;-33
2022/01/09 11:46:59;;;;;;;6.90;2.05;;;7.50;85.00;;;;;;5049200;28;20485;-30
2022/01/09 11:49:27;;;;;;;9.25;2.00;;;7.50;84.80;;;;;;5032203;28;20036;-32
2022/01/09 11:51:59;;;;;;;8.20;1.92;;;7.40;84.60;;;;;;5033717;28;20026;-31
2022/01/09 11:54:27;;;;;;;10.05;2.33;;;7.50;85.00;;;;;;5033615;28;20535;-30
2022/01/09 11:57:00;;;;;;;8.57;2.50;;;7.50;85.10;;;;;;5033543;28;20079;-30
2022/01/09 11:59:47;;;;;;;8.68;2.70;;;7.50;84.80;;;;;;5033699;28;20029;-30
2022/01/09 12:02:12;;;;;;;10.00;2.00;;;7.50;84.60;;;;;;5033413;28;20086;-29
2022/01/09 12:04:51;;;;;;;6.10;2.00;;;7.50;84.20;;;;;;5033583;28;20021;-30
2022/01/09 12:07:32;;;;;;;6.85;1.90;;;7.50;84.30;;;;;;5031798;28;20025;-29
2022/01/09 12:09:59;;;;;;;6.95;1.92;;;7.60;84.40;;;;;;5031886;28;20393;-31
2022/01/09 12:12:37;;;;;;;7.60;1.92;;;7.70;84.50;;;;;;5033090;28;20068;-31
2022/01/09 12:15:07;;;;;;;6.07;1.80;;;7.70;83.60;;;;;;5033291;28;20025;-31
2022/01/09 12:17:33;;;;;;;9.27;2.10;;;7.70;82.70;;;;;;5033265;28;20032;-31
2022/01/09 12:20:14;;;;;;;6.40;2.00;;;7.60;82.70;;;;;;5033049;28;20092;-33
2022/01/09 12:25:23;;;;;;;8.23;1.67;;;7.50;83.30;;;;;;5033259;28;20048;-32
2022/01/09 12:27:53;;;;;;;8.02;2.10;;;7.60;83.50;;;;;;5033140;28;20095;-34
2022/01/09 12:30:49;;;;;;;7.60;1.85;;;7.60;83.20;;;;;;5032811;28;20052;-32
2022/01/09 12:33:34;;;;;;;9.07;2.63;;;7.70;83.20;;;;;;5032842;28;20041;-30
2022/01/09 12:36:08;;;;;;;9.65;2.40;;;7.80;83.20;;;;;;5033144;28;20025;-29
2022/01/09 12:38:39;;;;;;;8.50;2.30;;;7.90;83.20;;;;;;5032831;28;20065;-30
2022/01/09 12:41:08;;;;;;;8.02;2.17;;;7.90;83.00;;;;;;5033086;28;20136;-35
2022/01/09 12:43:36;;;;;;;9.50;2.05;;;7.90;83.00;;;;;;5032813;28;20018;-31
2022/01/09 12:46:29;;;;;;;9.32;2.00;;;8.00;83.30;;;;;;5032935;28;20437;-32
2022/01/09 12:49:06;;;;;;;7.07;2.00;;;8.00;83.20;;;;;;5032531;28;20041;-29
2022/01/09 12:51:32;;;;;;;6.38;2.63;;;8.00;83.20;;;;;;5032962;28;20029;-30
2022/01/09 12:54:00;;;;;;;10.43;2.88;;;8.10;83.40;;;;;;5032787;28;20048;-37
2022/01/09 12:56:31;;;;;;;6.10;2.30;;;8.10;83.30;;;;;;5032642;28;20489;-31
2022/01/09 12:59:00;;;;;;;6.85;2.40;;;8.20;83.30;;;;;;5032698;28;20037;-32